createdAt,value
2022-10-25T00:00:48.843Z,98342.94
2022-10-25T00:03:15.842Z,98340.47
2022-10-25T00:05:42.886Z,98345.13
2022-10-25T00:08:09.911Z,98348.69
2022-10-25T00:10:37.355Z,98342.38
2022-10-25T00:13:04.843Z,98347.88
2022-10-25T00:15:31.800Z,98343.22
2022-10-25T00:17:58.729Z,98353.34
2022-10-25T00:20:25.672Z,98354.97
2022-10-25T00:22:52.720Z,98354.97
2022-10-25T00:25:19.717Z,98357.72
2022-10-25T00:27:47.112Z,98358.81
2022-10-25T00:30:14.097Z,98363.47
2022-10-25T00:32:40.993Z,98365.13
2022-10-25T00:35:08.289Z,98370.84
2022-10-25T00:37:36.089Z,98371.66
2022-10-25T00:40:03.535Z,98366.19
2022-10-25T00:42:30.526Z,98377.38
2022-10-25T00:45:11.205Z,98368.09
2022-10-25T00:47:42.129Z,98370.00
2022-10-25T00:50:17.467Z,98367.28
2022-10-25T00:52:45.442Z,98370.00
2022-10-25T00:55:12.402Z,98368.34
2022-10-25T00:57:45.977Z,98364.53
2022-10-25T01:00:13.411Z,98359.88
2022-10-25T01:02:40.407Z,98358.22
2022-10-25T01:05:07.903Z,98371.91
2022-10-25T01:07:49.731Z,98366.44
2022-10-25T01:10:39.831Z,98360.13
2022-10-25T01:13:23.935Z,98352.75
2022-10-25T01:16:28.204Z,98348.34
2022-10-25T01:19:26.761Z,98345.63
2022-10-25T01:22:28.241Z,98355.72
2022-10-25T01:25:25.273Z,98352.19
2022-10-25T01:28:10.080Z,98345.06
2022-10-25T01:31:14.321Z,98339.59
2022-10-25T01:33:44.336Z,98333.03
2022-10-25T01:36:22.988Z,98339.59
2022-10-25T01:39:09.958Z,98345.06
2022-10-25T01:41:56.709Z,98336.56
2022-10-25T01:44:37.529Z,98346.13
2022-10-25T01:47:07.087Z,98356.00
2022-10-25T01:50:02.397Z,98350.53
2022-10-25T01:52:29.389Z,98349.72
2022-10-25T01:54:56.293Z,98348.88
2022-10-25T01:57:48.272Z,98353.28
2022-10-25T02:00:18.167Z,98352.44
2022-10-25T02:02:50.808Z,98351.63
2022-10-25T02:05:42.323Z,98354.34
2022-10-25T02:08:22.518Z,98346.97
2022-10-25T02:11:12.668Z,98350.53
2022-10-25T02:13:52.567Z,98353.53
2022-10-25T02:16:25.873Z,98363.38
2022-10-25T02:18:55.462Z,98375.16
2022-10-25T02:21:22.397Z,98365.31
2022-10-25T02:23:49.330Z,98368.03
2022-10-25T02:26:16.253Z,98358.16
2022-10-25T02:28:43.174Z,98359.00
2022-10-25T02:31:11.637Z,98352.69
2022-10-25T02:33:38.579Z,98349.94
2022-10-25T02:36:20.561Z,98351.03
2022-10-25T02:38:47.505Z,98347.22
2022-10-25T02:41:14.471Z,98351.03
2022-10-25T02:43:41.837Z,98359.00
2022-10-25T02:46:09.967Z,98353.53
2022-10-25T02:48:37.402Z,98354.34
2022-10-25T02:51:05.503Z,98353.78
2022-10-25T02:53:32.460Z,98357.34
2022-10-25T02:56:02.440Z,98359.00
2022-10-25T02:58:30.724Z,98355.44
2022-10-25T03:00:57.955Z,98356.50
2022-10-25T03:03:24.997Z,98355.44
2022-10-25T03:05:52.167Z,98356.50
2022-10-25T03:08:19.360Z,98360.91
2022-10-25T03:10:46.405Z,98366.38
2022-10-25T03:13:13.390Z,98370.19
2022-10-25T03:15:40.330Z,98367.44
2022-10-25T03:18:07.273Z,98376.50
2022-10-25T03:20:34.262Z,98369.94
2022-10-25T03:23:01.175Z,98363.63
2022-10-25T03:25:28.104Z,98368.28
2022-10-25T03:27:55.035Z,98376.25
2022-10-25T03:30:21.990Z,98378.16
2022-10-25T03:32:48.874Z,98370.19
2022-10-25T03:35:15.789Z,98383.88
2022-10-25T03:37:42.724Z,98383.88
2022-10-25T03:40:10.287Z,98386.59
2022-10-25T03:42:37.218Z,98379.50
2022-10-25T03:45:04.442Z,98383.88
2022-10-25T03:47:31.384Z,98383.88
2022-10-25T03:49:58.334Z,98387.72
2022-10-25T03:52:25.251Z,98393.19
2022-10-25T03:54:52.189Z,98390.44
2022-10-25T03:57:19.131Z,98396.75
2022-10-25T03:59:46.058Z,98393.19
2022-10-25T04:02:13.099Z,98392.34
2022-10-25T04:04:40.078Z,98393.19
2022-10-25T04:07:07.093Z,98388.53
2022-10-25T04:09:34.132Z,98395.09
2022-10-25T04:12:01.199Z,98392.34
2022-10-25T04:14:28.243Z,98389.63
2022-10-25T04:16:55.175Z,98380.56
2022-10-25T04:19:22.086Z,98386.88
2022-10-25T04:21:49.050Z,98389.88
2022-10-25T04:24:16.037Z,98387.13
2022-10-25T04:26:43.054Z,98399.16
2022-10-25T04:29:10.676Z,98390.94
2022-10-25T04:31:37.628Z,98391.75
2022-10-25T04:34:04.548Z,98393.66
2022-10-25T04:36:31.577Z,98392.59
2022-10-25T04:38:58.470Z,98401.88
2022-10-25T04:41:25.474Z,98399.16
2022-10-25T04:43:52.602Z,98401.88
2022-10-25T04:46:19.902Z,98388.19
2022-10-25T04:48:47.042Z,98390.69
2022-10-25T04:51:14.032Z,98389.03
2022-10-25T04:53:40.913Z,98381.91
2022-10-25T04:56:09.830Z,98387.38
2022-10-25T04:58:36.931Z,98390.94
2022-10-25T05:01:08.400Z,98388.19
2022-10-25T05:03:35.571Z,98380.00
2022-10-25T05:06:22.621Z,98385.47
2022-10-25T05:08:50.245Z,98382.72
2022-10-25T05:11:18.995Z,98389.31
2022-10-25T05:13:45.939Z,98383.84
2022-10-25T05:16:14.872Z,98389.31
2022-10-25T05:18:43.100Z,98397.50
2022-10-25T05:21:10.101Z,98383.56
2022-10-25T05:23:37.099Z,98387.66
2022-10-25T05:26:08.668Z,98388.19
2022-10-25T05:28:36.109Z,98400.25
2022-10-25T05:33:42.199Z,98403.00
2022-10-25T05:36:09.192Z,98411.19
2022-10-25T05:38:37.784Z,98395.03
2022-10-25T05:41:05.140Z,98406.81
2022-10-25T05:43:32.140Z,98408.47
2022-10-25T05:46:15.481Z,98411.44
2022-10-25T05:48:47.321Z,98410.59
2022-10-25T05:51:32.234Z,98410.59
2022-10-25T05:54:02.383Z,98411.44
2022-10-25T05:56:29.810Z,98412.28
2022-10-25T05:58:57.424Z,98420.72
2022-10-25T06:01:24.697Z,98426.19
2022-10-25T06:03:52.208Z,98432.50
2022-10-25T06:06:19.322Z,98443.44
2022-10-25T06:08:46.489Z,98438.81
2022-10-25T06:11:18.368Z,98446.19
2022-10-25T06:13:45.351Z,98451.66
2022-10-25T06:16:14.077Z,98457.13
2022-10-25T06:18:40.975Z,98455.47
2022-10-25T06:21:15.626Z,98454.38
2022-10-25T06:23:42.645Z,98452.50
2022-10-25T06:26:13.975Z,98445.09
2022-10-25T06:28:41.156Z,98448.09
2022-10-25T06:31:12.592Z,98448.91
2022-10-25T06:33:39.741Z,98457.13
2022-10-25T06:36:07.875Z,98451.91
2022-10-25T06:38:34.864Z,98450.00
2022-10-25T06:41:02.687Z,98466.41
2022-10-25T06:43:29.991Z,98474.63
2022-10-25T06:45:56.900Z,98473.78
2022-10-25T06:48:23.874Z,98471.88
2022-10-25T06:51:04.295Z,98471.31
2022-10-25T06:53:31.380Z,98481.16
2022-10-25T06:56:10.578Z,98488.31
2022-10-25T06:58:38.983Z,98492.09
2022-10-25T07:01:13.598Z,98494.84
2022-10-25T07:03:40.829Z,98501.97
2022-10-25T07:06:09.809Z,98494.84
2022-10-25T07:08:37.985Z,98503.88
2022-10-25T07:11:05.172Z,98505.78
2022-10-25T07:13:32.749Z,98496.50
2022-10-25T07:16:06.614Z,98501.97
2022-10-25T07:18:33.817Z,98501.97
2022-10-25T07:21:05.029Z,98505.78
2022-10-25T07:23:31.947Z,98507.44
2022-10-25T07:25:58.996Z,98503.88
2022-10-25T07:28:26.266Z,98506.63
2022-10-25T07:30:53.274Z,98496.50
2022-10-25T07:33:20.460Z,98498.41
2022-10-25T07:35:59.016Z,98493.78
2022-10-25T07:38:33.286Z,98509.13
2022-10-25T07:41:00.274Z,98502.81
2022-10-25T07:43:27.522Z,98493.53
2022-10-25T07:45:54.524Z,98501.75
2022-10-25T07:48:21.692Z,98499.00
2022-10-25T07:50:48.700Z,98494.59
2022-10-25T07:53:15.717Z,98496.81
2022-10-25T07:55:42.652Z,98477.94
2022-10-25T07:58:11.097Z,98488.63
2022-10-25T08:00:38.083Z,98491.34
2022-10-25T08:03:05.326Z,98485.88
2022-10-25T08:05:32.314Z,98496.03
2022-10-25T08:07:59.251Z,98493.28
2022-10-25T08:10:26.176Z,98502.31
2022-10-25T08:12:54.862Z,98504.22
2022-10-25T08:15:21.749Z,98499.84
2022-10-25T08:17:48.967Z,98499.84
2022-10-25T08:20:16.286Z,98520.66
2022-10-25T08:22:43.188Z,98538.72
2022-10-25T08:25:10.496Z,98529.66
2022-10-25T08:27:37.406Z,98529.66
2022-10-25T08:30:04.720Z,98539.81
2022-10-25T08:32:31.684Z,98546.91
2022-10-25T08:34:58.785Z,98546.09
2022-10-25T08:37:25.689Z,98545.28
2022-10-25T08:39:54.924Z,98542.53
2022-10-25T08:42:46.647Z,98540.88
2022-10-25T08:45:23.321Z,98541.44
2022-10-25T08:47:53.288Z,98537.06
2022-10-25T08:50:34.822Z,98538.72
2022-10-25T08:53:03.024Z,98537.06
2022-10-25T08:55:30.521Z,98540.59
2022-10-25T08:57:58.725Z,98536.47
2022-10-25T09:00:25.782Z,98531.84
2022-10-25T09:02:55.957Z,98529.94
2022-10-25T09:05:35.045Z,98534.34
2022-10-25T09:08:37.166Z,98538.16
2022-10-25T09:11:19.240Z,98532.69
2022-10-25T09:13:54.921Z,98520.06
2022-10-25T09:16:37.085Z,98529.34
2022-10-25T09:19:04.223Z,98537.06
2022-10-25T09:21:48.608Z,98535.41
2022-10-25T09:24:22.280Z,98540.88
2022-10-25T09:26:59.002Z,98535.41
2022-10-25T09:29:36.061Z,98537.31
2022-10-25T09:32:03.612Z,98534.56
2022-10-25T09:34:33.282Z,98539.81
2022-10-25T09:37:46.246Z,98529.94
2022-10-25T09:40:23.400Z,98539.81
2022-10-25T09:42:55.838Z,98532.41
2022-10-25T09:45:37.317Z,98522.28
2022-10-25T09:48:11.916Z,98525.84
2022-10-25T09:50:46.868Z,98538.72
2022-10-25T09:53:16.652Z,98530.50
2022-10-25T09:55:55.824Z,98528.59
2022-10-25T09:58:27.326Z,98525.63
2022-10-25T10:00:55.408Z,98523.94
2022-10-25T10:03:22.375Z,98533.81
2022-10-25T10:05:56.935Z,98530.84
2022-10-25T10:08:24.592Z,98524.53
2022-10-25T10:10:51.658Z,98533.59
2022-10-25T10:13:34.483Z,98537.13
2022-10-25T10:16:03.131Z,98537.94
2022-10-25T10:18:31.571Z,98536.06
2022-10-25T10:21:10.473Z,98535.22
2022-10-25T10:23:45.718Z,98536.88
2022-10-25T10:26:38.607Z,98541.28
2022-10-25T10:29:17.897Z,98539.63
2022-10-25T10:31:47.940Z,98543.19
2022-10-25T10:34:33.843Z,98540.44
2022-10-25T10:37:12.864Z,98534.16
2022-10-25T10:39:50.294Z,98544.25
2022-10-25T10:42:21.616Z,98538.78
2022-10-25T10:45:09.593Z,98534.97
2022-10-25T10:47:51.481Z,98537.72
2022-10-25T10:50:24.615Z,98536.63
2022-10-25T10:53:06.829Z,98536.63
2022-10-25T10:55:37.417Z,98539.09
2022-10-25T10:58:15.288Z,98534.47
2022-10-25T11:00:49.464Z,98539.94
2022-10-25T11:03:42.404Z,98544.34
2022-10-25T11:06:15.937Z,98547.06
2022-10-25T11:08:46.690Z,98543.25
2022-10-25T11:11:21.865Z,98538.63
2022-10-25T11:13:55.304Z,98533.97
2022-10-25T11:16:59.588Z,98531.81
2022-10-25T11:19:39.565Z,98529.06
2022-10-25T11:22:22.276Z,98528.00
2022-10-25T11:25:07.157Z,98528.81
2022-10-25T11:28:09.464Z,98531.31
2022-10-25T11:30:45.533Z,98529.66
2022-10-25T11:33:29.631Z,98530.22
2022-10-25T11:36:29.101Z,98522.00
2022-10-25T11:39:04.830Z,98524.75
2022-10-25T11:42:02.361Z,98525.31
2022-10-25T11:44:54.940Z,98528.63
2022-10-25T11:47:42.361Z,98532.78
2022-10-25T11:50:10.427Z,98525.41
2022-10-25T11:52:58.902Z,98525.13
2022-10-25T11:55:36.822Z,98523.81
2022-10-25T11:58:30.409Z,98534.50
2022-10-25T12:01:25.193Z,98531.75
2022-10-25T12:04:29.800Z,98528.78
2022-10-25T12:07:08.466Z,98521.38
2022-10-25T12:09:45.674Z,98516.75
2022-10-25T12:12:15.100Z,98531.00
2022-10-25T12:14:44.142Z,98527.47
2022-10-25T12:17:28.035Z,98526.09
2022-10-25T12:19:56.371Z,98530.50
2022-10-25T12:22:43.883Z,98527.78
2022-10-25T12:25:27.263Z,98518.47
2022-10-25T12:28:19.909Z,98520.13
2022-10-25T12:30:46.854Z,98515.47
2022-10-25T12:33:20.479Z,98509.16
2022-10-25T12:35:51.335Z,98510.81
2022-10-25T12:38:32.588Z,98515.25
2022-10-25T12:41:02.997Z,98499.88
2022-10-25T12:43:34.580Z,98511.69
2022-10-25T12:46:18.392Z,98507.03
2022-10-25T12:48:54.053Z,98503.47
2022-10-25T12:51:30.515Z,98510.81
2022-10-25T12:54:36.246Z,98510.81
2022-10-25T12:57:21.189Z,98503.69
2022-10-25T12:59:57.006Z,98505.59
2022-10-25T13:02:48.782Z,98501.22
2022-10-25T13:05:43.780Z,98502.06
2022-10-25T13:08:16.362Z,98509.16
2022-10-25T13:10:44.446Z,98510.25
2022-10-25T13:13:16.723Z,98506.41
2022-10-25T13:15:45.282Z,98508.59
2022-10-25T13:18:40.262Z,98503.69
2022-10-25T13:21:16.242Z,98504.78
2022-10-25T13:23:43.108Z,98507.53
2022-10-25T13:26:11.979Z,98508.31
2022-10-25T13:28:51.707Z,98507.03
2022-10-25T13:31:36.454Z,98504.50
2022-10-25T13:34:12.221Z,98519.03
2022-10-25T13:36:58.447Z,98528.13
2022-10-25T13:39:35.175Z,98522.63
2022-10-25T13:42:23.872Z,98532.72
2022-10-25T13:44:56.407Z,98531.69
2022-10-25T13:47:46.333Z,98531.06
2022-10-25T13:50:20.480Z,98534.44
2022-10-25T13:52:58.923Z,98532.72
2022-10-25T13:55:44.632Z,98534.63
2022-10-25T13:58:31.975Z,98534.63
2022-10-25T14:01:17.953Z,98549.16
2022-10-25T14:04:16.952Z,98538.44
2022-10-25T14:06:43.921Z,98538.44
2022-10-25T14:09:34.749Z,98531.06
2022-10-25T14:12:01.554Z,98542.03
2022-10-25T14:14:49.883Z,98539.91
2022-10-25T14:17:25.129Z,98534.44
2022-10-25T14:19:59.080Z,98541.56
2022-10-25T14:22:36.081Z,98545.38
2022-10-25T14:25:34.299Z,98543.47
2022-10-25T14:28:15.065Z,98549.78
2022-10-25T14:30:43.515Z,98547.88
2022-10-25T14:33:35.457Z,98543.19
2022-10-25T14:36:23.459Z,98545.13
2022-10-25T14:38:53.236Z,98548.66
2022-10-25T14:41:22.236Z,98549.78
2022-10-25T14:43:49.263Z,98554.16
2022-10-25T14:46:18.059Z,98550.63
2022-10-25T14:48:49.273Z,98552.53
2022-10-25T14:51:31.621Z,98552.53
2022-10-25T14:54:02.619Z,98549.78
2022-10-25T14:56:35.301Z,98547.03
2022-10-25T14:59:02.364Z,98552.53
2022-10-25T17:21:39.971Z,98643.84
2022-10-25T17:24:09.754Z,98647.41
2022-10-25T17:26:37.020Z,98649.06
2022-10-25T17:29:04.331Z,98649.91
2022-10-25T17:31:32.847Z,98654.28
2022-10-25T17:34:02.871Z,98665.25
2022-10-25T17:36:32.147Z,98664.16
2022-10-25T17:39:00.044Z,98660.34
2022-10-25T17:41:27.136Z,98660.34
2022-10-25T17:43:56.080Z,98663.94
2022-10-25T17:46:25.863Z,98663.66
2022-10-25T17:48:57.006Z,98658.16
2022-10-25T17:51:24.243Z,98659.84
2022-10-25T17:53:54.619Z,98666.16
2022-10-25T17:56:23.070Z,98661.50
2022-10-25T17:58:50.686Z,98664.78
2022-10-25T18:01:22.442Z,98668.38
2022-10-25T18:03:50.421Z,98665.63
2022-10-25T18:06:19.512Z,98665.38
2022-10-25T18:08:51.211Z,98668.13
2022-10-25T18:11:26.127Z,98676.94
2022-10-25T18:13:54.161Z,98676.94
2022-10-25T18:16:22.391Z,98673.09
2022-10-25T18:18:49.390Z,98676.09
2022-10-25T18:21:16.335Z,98684.06
2022-10-25T18:23:43.314Z,98678.56
2022-10-25T18:26:11.300Z,98677.72
2022-10-25T18:28:38.271Z,98679.69
2022-10-25T18:31:07.303Z,98675.28
2022-10-25T18:33:34.892Z,98680.75
2022-10-25T18:36:06.600Z,98667.28
2022-10-25T18:38:33.853Z,98671.09
2022-10-25T18:41:00.749Z,98665.91
2022-10-25T18:43:27.638Z,98675.75
2022-10-25T18:45:57.837Z,98672.47
2022-10-25T18:48:25.272Z,98683.44
2022-10-25T18:50:52.271Z,98680.94
2022-10-25T18:53:19.355Z,98684.75
2022-10-25T18:55:47.089Z,98685.84
2022-10-25T18:58:15.967Z,98692.41
2022-10-25T19:00:43.584Z,98697.91
2022-10-25T19:03:14.629Z,98695.41
2022-10-25T19:05:41.774Z,98691.03
2022-10-25T19:08:11.839Z,98698.44
2022-10-25T19:10:42.025Z,98703.06
2022-10-25T19:13:12.550Z,98696.75
2022-10-25T19:15:39.467Z,98694.25
2022-10-25T19:18:06.415Z,98691.78
2022-10-25T19:20:33.423Z,98697.53
2022-10-25T19:23:00.648Z,98700.25
2022-10-25T19:25:30.557Z,98705.75
2022-10-25T19:27:57.546Z,98706.00
2022-10-25T19:30:24.950Z,98704.09
2022-10-25T19:32:51.952Z,98707.06
2022-10-25T19:35:19.256Z,98709.00
2022-10-25T19:37:46.740Z,98701.84
2022-10-25T19:40:14.274Z,98695.53
2022-10-25T19:42:41.442Z,98694.72
2022-10-25T19:45:08.568Z,98709.50
2022-10-25T19:47:36.183Z,98705.91
2022-10-25T19:50:05.789Z,98702.63
2022-10-25T19:52:39.466Z,98710.84
2022-10-25T19:55:06.908Z,98696.53
2022-10-25T19:57:34.382Z,98708.34
2022-10-25T20:00:01.593Z,98710.25
2022-10-25T20:02:29.217Z,98709.41
2022-10-25T20:04:56.423Z,98725.88
2022-10-25T20:07:23.426Z,98729.72
2022-10-25T20:09:50.423Z,98728.03
2022-10-25T20:12:17.359Z,98719.22
2022-10-25T20:14:44.282Z,98723.06
2022-10-25T20:17:12.771Z,98715.94
2022-10-25T20:19:40.050Z,98723.56
2022-10-25T20:22:07.135Z,98726.06
2022-10-25T20:24:34.421Z,98726.31
2022-10-25T20:27:02.209Z,98726.31
2022-10-25T20:29:29.518Z,98727.38
2022-10-25T20:31:56.443Z,98728.22
2022-10-25T20:34:23.759Z,98730.13
2022-10-25T20:36:50.839Z,98727.38
2022-10-25T20:39:18.442Z,98739.44
2022-10-25T20:41:46.032Z,98735.03
2022-10-25T20:44:14.926Z,98731.47
2022-10-25T20:46:42.014Z,98737.78
2022-10-25T20:49:08.935Z,98738.03
2022-10-25T20:51:35.874Z,98745.41
2022-10-25T20:54:09.744Z,98742.66
2022-10-25T20:56:37.447Z,98742.09
2022-10-25T20:59:04.553Z,98742.09
2022-10-25T21:01:31.875Z,98732.22
2022-10-25T21:03:58.905Z,98733.06
2022-10-25T21:06:25.878Z,98737.69
2022-10-25T21:08:52.772Z,98736.03
2022-10-25T21:11:19.739Z,98741.50
2022-10-25T21:13:46.865Z,98738.78
2022-10-25T21:16:14.895Z,98740.69
2022-10-25T21:18:42.445Z,98734.38
2022-10-25T21:21:13.481Z,98747.25
2022-10-25T21:23:40.399Z,98746.44
2022-10-25T21:26:07.739Z,98742.88
2022-10-25T21:28:36.300Z,98747.50
2022-10-25T21:31:04.069Z,98741.44
2022-10-25T21:33:31.012Z,98741.44
2022-10-25T21:36:09.033Z,98739.78
2022-10-25T21:38:36.066Z,98739.53
2022-10-25T21:41:09.326Z,98735.97
2022-10-25T21:43:36.999Z,98733.50
2022-10-25T21:46:07.169Z,98734.28
2022-10-25T21:48:34.650Z,98735.41
2022-10-25T21:51:01.701Z,98740.03
2022-10-25T21:53:28.794Z,98740.03
2022-10-25T21:56:14.431Z,98736.72
2022-10-25T21:58:42.513Z,98745.75
2022-10-25T22:01:11.242Z,98735.88
2022-10-25T22:03:39.052Z,98740.56
2022-10-25T22:06:10.091Z,98745.19
2022-10-25T22:08:37.137Z,98746.03
2022-10-25T22:11:17.205Z,98738.06
2022-10-25T22:13:44.729Z,98735.31
2022-10-25T22:16:13.910Z,98729.25
2022-10-25T22:18:40.878Z,98732.81
2022-10-25T22:21:11.783Z,98733.88
2022-10-25T22:23:39.091Z,98731.16
2022-10-25T22:26:10.716Z,98738.56
2022-10-25T22:28:40.716Z,98733.09
2022-10-25T22:31:17.654Z,98746.78
2022-10-25T22:33:44.824Z,98743.22
2022-10-25T22:36:16.263Z,98742.38
2022-10-25T22:38:43.292Z,98741.53
2022-10-25T22:41:14.166Z,98746.19
2022-10-25T22:43:41.324Z,98750.00
2022-10-25T22:46:11.175Z,98741.78
2022-10-25T22:48:39.127Z,98736.81
2022-10-25T22:51:06.225Z,98743.97
2022-10-25T22:53:34.680Z,98739.56
2022-10-25T22:56:11.787Z,98743.38
2022-10-25T22:58:38.913Z,98743.38
2022-10-25T23:01:11.576Z,98744.44
2022-10-25T23:03:42.115Z,98749.91
2022-10-25T23:06:14.274Z,98745.53
2022-10-25T23:08:41.528Z,98755.41
2022-10-25T23:11:24.608Z,98755.91
2022-10-25T23:13:51.680Z,98761.16
2022-10-25T23:16:18.681Z,98765.78
2022-10-25T23:18:45.740Z,98759.47
2022-10-25T23:21:20.140Z,98755.06
2022-10-25T23:23:47.397Z,98762.47
2022-10-25T23:26:25.574Z,98767.09
2022-10-25T23:28:52.546Z,98769.00
2022-10-25T23:31:19.527Z,98770.09
2022-10-25T23:33:46.508Z,98767.59
2022-10-25T23:36:16.604Z,98773.91
2022-10-25T23:38:43.948Z,98771.69
2022-10-25T23:41:10.933Z,98774.66
2022-10-25T23:43:38.031Z,98778.25
2022-10-25T23:46:05.621Z,98779.91
2022-10-25T23:48:32.623Z,98777.16
2022-10-25T23:51:04.087Z,98778.25
2022-10-25T23:53:31.034Z,98773.84
2022-10-25T23:55:58.055Z,98782.06
2022-10-25T23:58:25.005Z,98780.38
